Calypso, North Carolina
Current Conditions -  °F | °C
As of 6:55 AM on Saturday 22 Nov 2014 (Local Time) from KDPL Reporting Station
Clear Clear  
Wind Chill: 21°   Ceiling: Unl
Heat Index: 21°   Visibility: 10mi
Dew Point: 19°   Wind: 0mph
Humidity: 91%   Direction: NA
Pressure: 30.58"   Gusts: NA
Location:  35.15°N, 78.11°W
Report Text: KDPL 221155Z AUTO 00000KT 10SM CLR M06/M07 A3058 RMK AO2 T10621074 11027 21063
Loading
Personal Weather Stations






























Interactive Weather Map New forecast layout! Learn more

10-Day Weather Forecast

Advertisements
Track Severe Weather on mobile